sensor_id;sensor_type;location;lat;lon;timestamp;temperature;humidity
74171;DHT22;62526;50.948;6.590;2022-08-19T00:02:11;19.10;76.40
74171;DHT22;62526;50.948;6.590;2022-08-19T00:04:38;19.10;76.60
74171;DHT22;62526;50.948;6.590;2022-08-19T00:07:05;19.00;77.00
74171;DHT22;62526;50.948;6.590;2022-08-19T00:09:32;19.00;76.90
74171;DHT22;62526;50.948;6.590;2022-08-19T00:11:59;19.00;76.60
74171;DHT22;62526;50.948;6.590;2022-08-19T00:14:25;18.90;76.90
74171;DHT22;62526;50.948;6.590;2022-08-19T00:16:52;18.90;77.30
74171;DHT22;62526;50.948;6.590;2022-08-19T00:19:19;18.80;77.40
74171;DHT22;62526;50.948;6.590;2022-08-19T00:21:45;18.80;77.80
74171;DHT22;62526;50.948;6.590;2022-08-19T00:24:13;18.60;78.20
74171;DHT22;62526;50.948;6.590;2022-08-19T00:26:40;18.70;78.20
74171;DHT22;62526;50.948;6.590;2022-08-19T00:29:08;18.60;78.50
74171;DHT22;62526;50.948;6.590;2022-08-19T00:31:33;18.60;78.40
74171;DHT22;62526;50.948;6.590;2022-08-19T00:34:00;18.60;77.70
74171;DHT22;62526;50.948;6.590;2022-08-19T00:36:27;18.50;77.50
74171;DHT22;62526;50.948;6.590;2022-08-19T00:38:54;18.50;77.60
74171;DHT22;62526;50.948;6.590;2022-08-19T00:41:22;18.50;77.70
74171;DHT22;62526;50.948;6.590;2022-08-19T00:44:00;18.50;77.90
74171;DHT22;62526;50.948;6.590;2022-08-19T00:46:26;18.60;78.00
74171;DHT22;62526;50.948;6.590;2022-08-19T00:48:52;18.60;78.00
74171;DHT22;62526;50.948;6.590;2022-08-19T00:51:19;18.60;78.50
74171;DHT22;62526;50.948;6.590;2022-08-19T00:53:45;18.60;78.10
74171;DHT22;62526;50.948;6.590;2022-08-19T00:56:12;18.60;78.10
74171;DHT22;62526;50.948;6.590;2022-08-19T00:58:39;18.60;78.10
74171;DHT22;62526;50.948;6.590;2022-08-19T01:01:05;18.60;78.10
74171;DHT22;62526;50.948;6.590;2022-08-19T01:03:32;18.50;78.10
74171;DHT22;62526;50.948;6.590;2022-08-19T01:05:59;18.50;77.80
74171;DHT22;62526;50.948;6.590;2022-08-19T01:08:25;18.40;78.40
74171;DHT22;62526;50.948;6.590;2022-08-19T01:10:56;18.30;78.60
74171;DHT22;62526;50.948;6.590;2022-08-19T01:13:20;18.20;79.10
74171;DHT22;62526;50.948;6.590;2022-08-19T01:15:49;18.20;79.40
74171;DHT22;62526;50.948;6.590;2022-08-19T01:18:15;18.10;79.40
74171;DHT22;62526;50.948;6.590;2022-08-19T01:20:41;18.20;79.90
74171;DHT22;62526;50.948;6.590;2022-08-19T01:23:08;18.20;79.70
74171;DHT22;62526;50.948;6.590;2022-08-19T01:25:39;18.20;79.80
74171;DHT22;62526;50.948;6.590;2022-08-19T01:28:02;18.20;79.90
74171;DHT22;62526;50.948;6.590;2022-08-19T01:30:33;18.20;80.20
74171;DHT22;62526;50.948;6.590;2022-08-19T01:32:56;18.20;80.30
74171;DHT22;62526;50.948;6.590;2022-08-19T01:35:23;18.20;81.00
74171;DHT22;62526;50.948;6.590;2022-08-19T01:37:52;18.10;80.10
74171;DHT22;62526;50.948;6.590;2022-08-19T01:40:18;18.10;80.20
74171;DHT22;62526;50.948;6.590;2022-08-19T01:42:44;18.10;80.00
74171;DHT22;62526;50.948;6.590;2022-08-19T01:45:10;18.10;80.10
74171;DHT22;62526;50.948;6.590;2022-08-19T01:47:37;18.10;80.10
74171;DHT22;62526;50.948;6.590;2022-08-19T01:50:04;18.10;80.10
74171;DHT22;62526;50.948;6.590;2022-08-19T01:52:31;18.00;80.20
74171;DHT22;62526;50.948;6.590;2022-08-19T01:54:58;17.90;80.10
74171;DHT22;62526;50.948;6.590;2022-08-19T01:57:25;17.90;80.20
74171;DHT22;62526;50.948;6.590;2022-08-19T01:59:52;17.90;80.20
74171;DHT22;62526;50.948;6.590;2022-08-19T02:02:19;17.90;80.20
74171;DHT22;62526;50.948;6.590;2022-08-19T02:04:46;17.90;80.40
74171;DHT22;62526;50.948;6.590;2022-08-19T02:07:12;17.80;80.90
74171;DHT22;62526;50.948;6.590;2022-08-19T02:09:40;17.70;82.40
74171;DHT22;62526;50.948;6.590;2022-08-19T02:12:07;17.70;81.60
74171;DHT22;62526;50.948;6.590;2022-08-19T02:14:35;17.60;81.40
74171;DHT22;62526;50.948;6.590;2022-08-19T02:17:01;17.60;81.40
74171;DHT22;62526;50.948;6.590;2022-08-19T02:19:27;17.60;81.40
74171;DHT22;62526;50.948;6.590;2022-08-19T02:21:54;17.50;81.60
74171;DHT22;62526;50.948;6.590;2022-08-19T02:24:21;17.50;81.90
74171;DHT22;62526;50.948;6.590;2022-08-19T02:26:47;17.50;82.00
74171;DHT22;62526;50.948;6.590;2022-08-19T02:29:14;17.40;82.10
74171;DHT22;62526;50.948;6.590;2022-08-19T02:31:40;17.30;82.10
74171;DHT22;62526;50.948;6.590;2022-08-19T02:34:07;17.30;81.90
74171;DHT22;62526;50.948;6.590;2022-08-19T02:36:34;17.20;83.00
74171;DHT22;62526;50.948;6.590;2022-08-19T02:39:00;17.10;83.20
74171;DHT22;62526;50.948;6.590;2022-08-19T02:41:28;17.00;83.40
74171;DHT22;62526;50.948;6.590;2022-08-19T02:43:55;17.10;83.70
74171;DHT22;62526;50.948;6.590;2022-08-19T02:46:22;17.10;84.00
74171;DHT22;62526;50.948;6.590;2022-08-19T02:48:48;17.20;84.40
74171;DHT22;62526;50.948;6.590;2022-08-19T02:51:17;17.20;84.20
74171;DHT22;62526;50.948;6.590;2022-08-19T02:53:42;17.20;82.50
74171;DHT22;62526;50.948;6.590;2022-08-19T02:56:09;17.10;81.60
74171;DHT22;62526;50.948;6.590;2022-08-19T02:58:35;17.10;81.90
74171;DHT22;62526;50.948;6.590;2022-08-19T03:01:02;17.00;82.30
74171;DHT22;62526;50.948;6.590;2022-08-19T03:03:29;17.00;82.70
74171;DHT22;62526;50.948;6.590;2022-08-19T03:06:07;17.00;82.90
74171;DHT22;62526;50.948;6.590;2022-08-19T03:08:32;17.00;83.10
74171;DHT22;62526;50.948;6.590;2022-08-19T03:10:59;17.10;83.90
74171;DHT22;62526;50.948;6.590;2022-08-19T03:13:25;17.10;84.00
74171;DHT22;62526;50.948;6.590;2022-08-19T03:15:52;17.10;84.20
74171;DHT22;62526;50.948;6.590;2022-08-19T03:18:20;17.20;85.20
74171;DHT22;62526;50.948;6.590;2022-08-19T03:20:48;17.10;85.10
74171;DHT22;62526;50.948;6.590;2022-08-19T03:23:14;17.20;84.90
74171;DHT22;62526;50.948;6.590;2022-08-19T03:25:41;17.20;85.10
74171;DHT22;62526;50.948;6.590;2022-08-19T03:28:07;17.30;85.20
74171;DHT22;62526;50.948;6.590;2022-08-19T03:30:34;17.30;85.50
74171;DHT22;62526;50.948;6.590;2022-08-19T03:33:00;17.30;86.00
74171;DHT22;62526;50.948;6.590;2022-08-19T03:35:27;17.40;86.90
74171;DHT22;62526;50.948;6.590;2022-08-19T03:37:53;17.50;87.30
74171;DHT22;62526;50.948;6.590;2022-08-19T03:40:21;17.60;87.30
74171;DHT22;62526;50.948;6.590;2022-08-19T03:42:48;17.60;86.90
74171;DHT22;62526;50.948;6.590;2022-08-19T03:45:15;17.60;86.90
74171;DHT22;62526;50.948;6.590;2022-08-19T03:47:42;17.60;86.70
74171;DHT22;62526;50.948;6.590;2022-08-19T03:50:09;17.60;87.10
74171;DHT22;62526;50.948;6.590;2022-08-19T03:52:36;17.60;87.10
74171;DHT22;62526;50.948;6.590;2022-08-19T03:55:03;17.60;87.30
74171;DHT22;62526;50.948;6.590;2022-08-19T03:57:30;17.60;87.50
74171;DHT22;62526;50.948;6.590;2022-08-19T03:59:56;17.60;87.60
74171;DHT22;62526;50.948;6.590;2022-08-19T04:02:23;17.50;87.70
74171;DHT22;62526;50.948;6.590;2022-08-19T04:04:49;17.60;87.60
74171;DHT22;62526;50.948;6.590;2022-08-19T04:07:16;17.50;87.70
74171;DHT22;62526;50.948;6.590;2022-08-19T04:09:43;17.50;87.90
74171;DHT22;62526;50.948;6.590;2022-08-19T04:12:09;17.60;88.00
74171;DHT22;62526;50.948;6.590;2022-08-19T04:14:36;17.50;87.90
74171;DHT22;62526;50.948;6.590;2022-08-19T04:17:03;17.50;88.00
74171;DHT22;62526;50.948;6.590;2022-08-19T04:19:30;17.50;87.90
74171;DHT22;62526;50.948;6.590;2022-08-19T04:21:57;17.50;88.10
74171;DHT22;62526;50.948;6.590;2022-08-19T04:24:23;17.50;88.20
74171;DHT22;62526;50.948;6.590;2022-08-19T04:26:51;17.50;87.50
74171;DHT22;62526;50.948;6.590;2022-08-19T04:29:20;17.50;87.50
74171;DHT22;62526;50.948;6.590;2022-08-19T04:31:45;17.50;87.20
74171;DHT22;62526;50.948;6.590;2022-08-19T04:34:13;17.50;87.00
74171;DHT22;62526;50.948;6.590;2022-08-19T04:36:39;17.50;86.70
74171;DHT22;62526;50.948;6.590;2022-08-19T04:39:07;17.50;86.20
74171;DHT22;62526;50.948;6.590;2022-08-19T04:41:32;17.40;85.90
74171;DHT22;62526;50.948;6.590;2022-08-19T04:44:05;17.40;86.00
74171;DHT22;62526;50.948;6.590;2022-08-19T04:46:31;17.40;86.20
74171;DHT22;62526;50.948;6.590;2022-08-19T04:48:59;17.40;86.40
74171;DHT22;62526;50.948;6.590;2022-08-19T04:51:25;17.30;86.20
74171;DHT22;62526;50.948;6.590;2022-08-19T04:53:52;17.40;87.00
74171;DHT22;62526;50.948;6.590;2022-08-19T04:56:19;17.40;89.40
74171;DHT22;62526;50.948;6.590;2022-08-19T04:58:46;17.50;90.00
74171;DHT22;62526;50.948;6.590;2022-08-19T05:01:14;17.50;90.10
74171;DHT22;62526;50.948;6.590;2022-08-19T05:03:39;17.50;90.40
74171;DHT22;62526;50.948;6.590;2022-08-19T05:06:07;17.50;90.10
74171;DHT22;62526;50.948;6.590;2022-08-19T05:08:34;17.60;89.90
74171;DHT22;62526;50.948;6.590;2022-08-19T05:11:00;17.60;90.00
74171;DHT22;62526;50.948;6.590;2022-08-19T05:13:27;17.60;90.00
74171;DHT22;62526;50.948;6.590;2022-08-19T05:15:55;17.70;90.00
74171;DHT22;62526;50.948;6.590;2022-08-19T05:18:21;17.70;90.00
74171;DHT22;62526;50.948;6.590;2022-08-19T05:20:53;17.80;90.00
74171;DHT22;62526;50.948;6.590;2022-08-19T05:23:25;17.80;90.00
74171;DHT22;62526;50.948;6.590;2022-08-19T05:25:52;17.80;90.00
74171;DHT22;62526;50.948;6.590;2022-08-19T05:28:19;17.80;90.10
74171;DHT22;62526;50.948;6.590;2022-08-19T05:30:45;17.80;90.10
74171;DHT22;62526;50.948;6.590;2022-08-19T05:33:12;17.90;90.00
74171;DHT22;62526;50.948;6.590;2022-08-19T05:35:39;17.90;90.00
74171;DHT22;62526;50.948;6.590;2022-08-19T05:38:05;18.00;90.10
74171;DHT22;62526;50.948;6.590;2022-08-19T05:40:34;18.00;90.10
74171;DHT22;62526;50.948;6.590;2022-08-19T05:43:00;18.00;90.10
74171;DHT22;62526;50.948;6.590;2022-08-19T05:45:27;18.10;90.00
74171;DHT22;62526;50.948;6.590;2022-08-19T05:47:53;18.20;90.00
74171;DHT22;62526;50.948;6.590;2022-08-19T05:50:20;18.20;90.00
74171;DHT22;62526;50.948;6.590;2022-08-19T05:52:47;18.30;90.00
74171;DHT22;62526;50.948;6.590;2022-08-19T05:55:15;18.30;90.00
74171;DHT22;62526;50.948;6.590;2022-08-19T05:57:41;18.50;90.00
74171;DHT22;62526;50.948;6.590;2022-08-19T06:00:10;18.50;89.90
74171;DHT22;62526;50.948;6.590;2022-08-19T06:02:37;18.70;89.40
74171;DHT22;62526;50.948;6.590;2022-08-19T06:05:04;18.70;89.30
74171;DHT22;62526;50.948;6.590;2022-08-19T06:07:31;18.70;89.10
74171;DHT22;62526;50.948;6.590;2022-08-19T06:09:57;18.80;88.90
74171;DHT22;62526;50.948;6.590;2022-08-19T06:12:24;18.80;88.90
74171;DHT22;62526;50.948;6.590;2022-08-19T06:14:51;18.80;88.80
74171;DHT22;62526;50.948;6.590;2022-08-19T06:17:18;18.80;88.50
74171;DHT22;62526;50.948;6.590;2022-08-19T06:19:44;18.80;88.50
74171;DHT22;62526;50.948;6.590;2022-08-19T06:22:11;18.80;88.40
74171;DHT22;62526;50.948;6.590;2022-08-19T06:24:37;18.80;88.30
74171;DHT22;62526;50.948;6.590;2022-08-19T06:27:05;18.80;88.60
74171;DHT22;62526;50.948;6.590;2022-08-19T06:29:32;18.80;88.50
74171;DHT22;62526;50.948;6.590;2022-08-19T06:31:59;18.80;88.40
74171;DHT22;62526;50.948;6.590;2022-08-19T06:34:27;18.80;88.70
74171;DHT22;62526;50.948;6.590;2022-08-19T06:36:53;18.80;88.70
74171;DHT22;62526;50.948;6.590;2022-08-19T06:39:22;18.80;88.60
74171;DHT22;62526;50.948;6.590;2022-08-19T06:41:48;18.90;88.80
74171;DHT22;62526;50.948;6.590;2022-08-19T06:44:14;18.90;88.40
74171;DHT22;62526;50.948;6.590;2022-08-19T06:46:40;19.00;88.20
74171;DHT22;62526;50.948;6.590;2022-08-19T06:49:07;19.00;87.90
74171;DHT22;62526;50.948;6.590;2022-08-19T06:51:33;19.10;87.60
74171;DHT22;62526;50.948;6.590;2022-08-19T06:54:00;19.20;87.30
74171;DHT22;62526;50.948;6.590;2022-08-19T06:56:28;19.30;87.00
74171;DHT22;62526;50.948;6.590;2022-08-19T06:58:55;19.40;86.60
74171;DHT22;62526;50.948;6.590;2022-08-19T07:01:22;19.60;86.20
74171;DHT22;62526;50.948;6.590;2022-08-19T07:03:49;19.70;86.00
74171;DHT22;62526;50.948;6.590;2022-08-19T07:06:16;19.90;86.00
74171;DHT22;62526;50.948;6.590;2022-08-19T07:08:43;20.00;85.60
74171;DHT22;62526;50.948;6.590;2022-08-19T07:11:11;20.00;85.30
74171;DHT22;62526;50.948;6.590;2022-08-19T07:13:37;20.00;85.30
74171;DHT22;62526;50.948;6.590;2022-08-19T07:16:07;20.00;84.70
74171;DHT22;62526;50.948;6.590;2022-08-19T07:18:34;19.90;85.20
74171;DHT22;62526;50.948;6.590;2022-08-19T07:21:06;19.80;85.40
74171;DHT22;62526;50.948;6.590;2022-08-19T07:23:32;19.80;85.50
74171;DHT22;62526;50.948;6.590;2022-08-19T07:26:05;19.80;85.50
74171;DHT22;62526;50.948;6.590;2022-08-19T07:28:31;19.70;85.50
74171;DHT22;62526;50.948;6.590;2022-08-19T07:30:57;19.60;85.40
74171;DHT22;62526;50.948;6.590;2022-08-19T07:33:24;19.60;85.80
74171;DHT22;62526;50.948;6.590;2022-08-19T07:35:50;19.70;85.60
74171;DHT22;62526;50.948;6.590;2022-08-19T07:38:17;19.80;85.50
74171;DHT22;62526;50.948;6.590;2022-08-19T07:40:44;19.90;84.80
74171;DHT22;62526;50.948;6.590;2022-08-19T07:43:11;20.00;84.60
74171;DHT22;62526;50.948;6.590;2022-08-19T07:45:37;20.20;83.80
74171;DHT22;62526;50.948;6.590;2022-08-19T07:48:04;20.10;83.70
74171;DHT22;62526;50.948;6.590;2022-08-19T07:50:31;20.20;83.80
74171;DHT22;62526;50.948;6.590;2022-08-19T07:52:57;20.30;83.70
74171;DHT22;62526;50.948;6.590;2022-08-19T07:55:24;20.20;83.20
74171;DHT22;62526;50.948;6.590;2022-08-19T07:57:51;20.20;83.20
74171;DHT22;62526;50.948;6.590;2022-08-19T08:00:18;20.20;83.00
74171;DHT22;62526;50.948;6.590;2022-08-19T08:02:45;20.20;83.20
74171;DHT22;62526;50.948;6.590;2022-08-19T08:05:12;20.30;82.50
74171;DHT22;62526;50.948;6.590;2022-08-19T08:07:44;20.30;82.50
74171;DHT22;62526;50.948;6.590;2022-08-19T08:10:32;20.30;81.70
74171;DHT22;62526;50.948;6.590;2022-08-19T08:12:59;20.30;81.30
74171;DHT22;62526;50.948;6.590;2022-08-19T08:15:25;20.30;81.40
74171;DHT22;62526;50.948;6.590;2022-08-19T08:17:52;20.30;81.50
74171;DHT22;62526;50.948;6.590;2022-08-19T08:20:18;20.40;80.90
74171;DHT22;62526;50.948;6.590;2022-08-19T08:22:46;20.50;81.20
74171;DHT22;62526;50.948;6.590;2022-08-19T08:25:19;20.60;80.40
74171;DHT22;62526;50.948;6.590;2022-08-19T08:27:44;20.70;80.10
74171;DHT22;62526;50.948;6.590;2022-08-19T08:30:13;20.90;79.60
74171;DHT22;62526;50.948;6.590;2022-08-19T08:32:39;21.00;78.00
74171;DHT22;62526;50.948;6.590;2022-08-19T08:35:06;21.20;77.20
74171;DHT22;62526;50.948;6.590;2022-08-19T08:37:32;21.40;76.20
74171;DHT22;62526;50.948;6.590;2022-08-19T08:40:02;21.60;74.70
74171;DHT22;62526;50.948;6.590;2022-08-19T08:42:32;21.70;73.50
74171;DHT22;62526;50.948;6.590;2022-08-19T08:45:00;21.80;73.00
74171;DHT22;62526;50.948;6.590;2022-08-19T08:47:26;21.90;72.20
74171;DHT22;62526;50.948;6.590;2022-08-19T08:50:04;22.00;72.80
74171;DHT22;62526;50.948;6.590;2022-08-19T08:52:32;22.20;70.00
74171;DHT22;62526;50.948;6.590;2022-08-19T08:54:59;22.50;70.50
74171;DHT22;62526;50.948;6.590;2022-08-19T08:57:27;22.40;70.30
74171;DHT22;62526;50.948;6.590;2022-08-19T08:59:53;22.70;69.90
74171;DHT22;62526;50.948;6.590;2022-08-19T09:02:20;22.80;67.20
74171;DHT22;62526;50.948;6.590;2022-08-19T09:04:47;22.80;67.30
74171;DHT22;62526;50.948;6.590;2022-08-19T09:08:07;23.00;65.70
74171;DHT22;62526;50.948;6.590;2022-08-19T09:10:23;23.10;66.20
74171;DHT22;62526;50.948;6.590;2022-08-19T09:13:06;23.40;65.50
74171;DHT22;62526;50.948;6.590;2022-08-19T09:15:32;23.50;63.40
74171;DHT22;62526;50.948;6.590;2022-08-19T09:17:59;23.60;62.50
74171;DHT22;62526;50.948;6.590;2022-08-19T09:20:24;23.80;64.70
74171;DHT22;62526;50.948;6.590;2022-08-19T09:22:51;23.70;64.50
74171;DHT22;62526;50.948;6.590;2022-08-19T09:25:21;23.90;63.50
74171;DHT22;62526;50.948;6.590;2022-08-19T09:27:45;23.90;64.00
74171;DHT22;62526;50.948;6.590;2022-08-19T09:30:14;23.90;63.30
74171;DHT22;62526;50.948;6.590;2022-08-19T09:32:40;23.90;64.80
74171;DHT22;62526;50.948;6.590;2022-08-19T09:35:07;23.90;64.90
74171;DHT22;62526;50.948;6.590;2022-08-19T09:37:34;23.80;64.70
74171;DHT22;62526;50.948;6.590;2022-08-19T09:40:03;23.50;66.50
74171;DHT22;62526;50.948;6.590;2022-08-19T09:42:30;23.50;66.40
74171;DHT22;62526;50.948;6.590;2022-08-19T09:44:56;23.50;66.80
74171;DHT22;62526;50.948;6.590;2022-08-19T09:47:23;23.50;66.40
74171;DHT22;62526;50.948;6.590;2022-08-19T09:49:50;23.50;66.40
74171;DHT22;62526;50.948;6.590;2022-08-19T09:52:16;23.60;65.30
74171;DHT22;62526;50.948;6.590;2022-08-19T09:54:44;23.40;64.70
74171;DHT22;62526;50.948;6.590;2022-08-19T09:57:11;23.40;64.70
74171;DHT22;62526;50.948;6.590;2022-08-19T09:59:38;23.40;65.80
74171;DHT22;62526;50.948;6.590;2022-08-19T10:02:05;23.90;64.80
74171;DHT22;62526;50.948;6.590;2022-08-19T10:04:32;23.90;64.80
74171;DHT22;62526;50.948;6.590;2022-08-19T10:07:04;24.20;61.70
74171;DHT22;62526;50.948;6.590;2022-08-19T10:09:31;24.30;60.80
74171;DHT22;62526;50.948;6.590;2022-08-19T10:11:58;24.50;61.30
74171;DHT22;62526;50.948;6.590;2022-08-19T10:14:24;24.70;61.60
74171;DHT22;62526;50.948;6.590;2022-08-19T10:16:52;24.80;61.10
74171;DHT22;62526;50.948;6.590;2022-08-19T10:19:19;24.80;61.00
74171;DHT22;62526;50.948;6.590;2022-08-19T10:21:45;24.80;60.50
74171;DHT22;62526;50.948;6.590;2022-08-19T10:24:12;24.60;59.20
74171;DHT22;62526;50.948;6.590;2022-08-19T10:26:39;24.50;59.00
74171;DHT22;62526;50.948;6.590;2022-08-19T10:29:05;24.50;60.40
74171;DHT22;62526;50.948;6.590;2022-08-19T10:31:33;24.50;61.40
74171;DHT22;62526;50.948;6.590;2022-08-19T10:33:59;24.50;60.00
74171;DHT22;62526;50.948;6.590;2022-08-19T10:36:28;24.40;59.90
74171;DHT22;62526;50.948;6.590;2022-08-19T10:38:55;24.60;60.20
74171;DHT22;62526;50.948;6.590;2022-08-19T10:41:21;24.60;60.20
74171;DHT22;62526;50.948;6.590;2022-08-19T10:43:47;24.80;60.00
74171;DHT22;62526;50.948;6.590;2022-08-19T10:46:15;24.70;60.00
74171;DHT22;62526;50.948;6.590;2022-08-19T10:48:42;25.20;58.90
74171;DHT22;62526;50.948;6.590;2022-08-19T10:51:08;25.20;58.90
74171;DHT22;62526;50.948;6.590;2022-08-19T10:53:40;25.50;58.10
74171;DHT22;62526;50.948;6.590;2022-08-19T10:56:07;25.70;57.50
74171;DHT22;62526;50.948;6.590;2022-08-19T10:58:39;25.60;56.90
74171;DHT22;62526;50.948;6.590;2022-08-19T11:01:06;25.40;56.40
74171;DHT22;62526;50.948;6.590;2022-08-19T11:03:33;25.20;57.60
74171;DHT22;62526;50.948;6.590;2022-08-19T11:05:59;25.20;56.50
74171;DHT22;62526;50.948;6.590;2022-08-19T11:08:26;25.30;56.90
74171;DHT22;62526;50.948;6.590;2022-08-19T11:10:53;25.50;56.40
74171;DHT22;62526;50.948;6.590;2022-08-19T11:13:21;25.70;55.60
74171;DHT22;62526;50.948;6.590;2022-08-19T11:15:55;25.90;54.90
74171;DHT22;62526;50.948;6.590;2022-08-19T11:18:14;26.10;55.50
74171;DHT22;62526;50.948;6.590;2022-08-19T11:20:41;26.10;54.20
74171;DHT22;62526;50.948;6.590;2022-08-19T11:23:08;26.20;54.90
74171;DHT22;62526;50.948;6.590;2022-08-19T11:25:34;26.30;54.80
74171;DHT22;62526;50.948;6.590;2022-08-19T11:28:01;26.30;53.80
74171;DHT22;62526;50.948;6.590;2022-08-19T11:30:28;26.70;54.00
74171;DHT22;62526;50.948;6.590;2022-08-19T11:32:54;27.00;52.40
74171;DHT22;62526;50.948;6.590;2022-08-19T11:35:21;26.40;53.90
74171;DHT22;62526;50.948;6.590;2022-08-19T11:37:48;26.30;54.40
74171;DHT22;62526;50.948;6.590;2022-08-19T11:40:15;26.70;53.30
74171;DHT22;62526;50.948;6.590;2022-08-19T11:42:42;26.80;53.40
74171;DHT22;62526;50.948;6.590;2022-08-19T11:45:26;26.50;53.80
74171;DHT22;62526;50.948;6.590;2022-08-19T11:47:53;26.10;53.30
74171;DHT22;62526;50.948;6.590;2022-08-19T11:50:20;26.30;53.40
74171;DHT22;62526;50.948;6.590;2022-08-19T11:52:47;26.50;52.90
74171;DHT22;62526;50.948;6.590;2022-08-19T11:55:14;27.60;49.80
74171;DHT22;62526;50.948;6.590;2022-08-19T11:57:42;27.50;49.70
74171;DHT22;62526;50.948;6.590;2022-08-19T12:00:10;27.60;48.90
74171;DHT22;62526;50.948;6.590;2022-08-19T12:02:37;27.90;48.30
74171;DHT22;62526;50.948;6.590;2022-08-19T12:05:04;28.50;47.00
74171;DHT22;62526;50.948;6.590;2022-08-19T12:07:31;28.40;46.40
74171;DHT22;62526;50.948;6.590;2022-08-19T12:09:57;28.40;47.90
74171;DHT22;62526;50.948;6.590;2022-08-19T12:12:24;28.80;46.70
74171;DHT22;62526;50.948;6.590;2022-08-19T12:14:50;29.20;46.30
74171;DHT22;62526;50.948;6.590;2022-08-19T12:17:17;29.40;44.70
74171;DHT22;62526;50.948;6.590;2022-08-19T12:19:44;28.70;46.10
74171;DHT22;62526;50.948;6.590;2022-08-19T12:22:10;28.30;47.00
74171;DHT22;62526;50.948;6.590;2022-08-19T12:24:37;28.60;46.00
74171;DHT22;62526;50.948;6.590;2022-08-19T12:27:04;28.80;45.00
74171;DHT22;62526;50.948;6.590;2022-08-19T12:29:30;29.40;44.60
74171;DHT22;62526;50.948;6.590;2022-08-19T12:31:58;29.90;42.30
74171;DHT22;62526;50.948;6.590;2022-08-19T12:34:25;29.90;41.20
74171;DHT22;62526;50.948;6.590;2022-08-19T12:36:51;30.40;40.80
74171;DHT22;62526;50.948;6.590;2022-08-19T12:39:19;29.70;42.70
74171;DHT22;62526;50.948;6.590;2022-08-19T12:41:45;29.60;42.60
74171;DHT22;62526;50.948;6.590;2022-08-19T12:44:13;30.60;41.70
74171;DHT22;62526;50.948;6.590;2022-08-19T12:46:39;30.60;41.70
74171;DHT22;62526;50.948;6.590;2022-08-19T12:49:06;31.30;40.90
74171;DHT22;62526;50.948;6.590;2022-08-19T12:51:33;31.60;39.80
74171;DHT22;62526;50.948;6.590;2022-08-19T12:53:59;31.40;38.70
74171;DHT22;62526;50.948;6.590;2022-08-19T12:56:26;30.80;39.50
74171;DHT22;62526;50.948;6.590;2022-08-19T12:58:53;30.70;39.20
74171;DHT22;62526;50.948;6.590;2022-08-19T13:01:19;31.00;38.80
74171;DHT22;62526;50.948;6.590;2022-08-19T13:03:47;31.80;38.40
74171;DHT22;62526;50.948;6.590;2022-08-19T13:06:14;31.80;38.40
74171;DHT22;62526;50.948;6.590;2022-08-19T13:08:41;31.90;38.10
74171;DHT22;62526;50.948;6.590;2022-08-19T13:11:09;32.40;37.50
74171;DHT22;62526;50.948;6.590;2022-08-19T13:13:36;32.80;35.90
74171;DHT22;62526;50.948;6.590;2022-08-19T13:16:03;32.70;36.60
74171;DHT22;62526;50.948;6.590;2022-08-19T13:18:30;33.00;35.50
74171;DHT22;62526;50.948;6.590;2022-08-19T13:20:56;33.10;36.30
74171;DHT22;62526;50.948;6.590;2022-08-19T13:23:23;33.40;35.20
74171;DHT22;62526;50.948;6.590;2022-08-19T13:25:57;33.10;35.80
74171;DHT22;62526;50.948;6.590;2022-08-19T13:28:23;33.60;35.30
74171;DHT22;62526;50.948;6.590;2022-08-19T13:30:49;33.90;34.20
74171;DHT22;62526;50.948;6.590;2022-08-19T13:33:22;33.30;35.40
74171;DHT22;62526;50.948;6.590;2022-08-19T13:35:49;33.10;36.40
74171;DHT22;62526;50.948;6.590;2022-08-19T13:38:17;32.70;36.30
74171;DHT22;62526;50.948;6.590;2022-08-19T13:40:43;32.90;36.40
74171;DHT22;62526;50.948;6.590;2022-08-19T13:43:10;32.90;35.50
74171;DHT22;62526;50.948;6.590;2022-08-19T13:45:36;32.60;36.30
74171;DHT22;62526;50.948;6.590;2022-08-19T13:48:05;32.60;36.30
74171;DHT22;62526;50.948;6.590;2022-08-19T13:50:31;32.90;36.00
74171;DHT22;62526;50.948;6.590;2022-08-19T13:52:59;33.50;35.80
74171;DHT22;62526;50.948;6.590;2022-08-19T13:55:25;33.90;33.70
74171;DHT22;62526;50.948;6.590;2022-08-19T13:57:53;34.00;32.50
74171;DHT22;62526;50.948;6.590;2022-08-19T14:00:19;34.40;31.50
74171;DHT22;62526;50.948;6.590;2022-08-19T14:02:46;33.80;32.30
74171;DHT22;62526;50.948;6.590;2022-08-19T14:05:13;33.40;32.70
74171;DHT22;62526;50.948;6.590;2022-08-19T14:07:38;33.90;32.00
74171;DHT22;62526;50.948;6.590;2022-08-19T14:10:06;34.50;30.00
74171;DHT22;62526;50.948;6.590;2022-08-19T14:12:33;35.00;29.50
74171;DHT22;62526;50.948;6.590;2022-08-19T14:14:59;35.20;29.80
74171;DHT22;62526;50.948;6.590;2022-08-19T14:17:26;35.70;29.00
74171;DHT22;62526;50.948;6.590;2022-08-19T14:19:57;33.80;31.80
74171;DHT22;62526;50.948;6.590;2022-08-19T14:22:23;33.80;31.70
74171;DHT22;62526;50.948;6.590;2022-08-19T14:24:49;34.10;31.20
74171;DHT22;62526;50.948;6.590;2022-08-19T14:27:16;35.20;30.20
74171;DHT22;62526;50.948;6.590;2022-08-19T14:29:43;34.60;30.90
74171;DHT22;62526;50.948;6.590;2022-08-19T14:32:10;34.60;30.20
74171;DHT22;62526;50.948;6.590;2022-08-19T14:34:37;34.30;30.90
74171;DHT22;62526;50.948;6.590;2022-08-19T14:39:49;33.60;32.70
74171;DHT22;62526;50.948;6.590;2022-08-19T14:42:17;34.60;31.30
74171;DHT22;62526;50.948;6.590;2022-08-19T14:44:44;34.60;31.30
74171;DHT22;62526;50.948;6.590;2022-08-19T14:47:11;35.20;31.00
74171;DHT22;62526;50.948;6.590;2022-08-19T14:49:37;35.50;30.50
74171;DHT22;62526;50.948;6.590;2022-08-19T14:52:04;34.30;32.70
74171;DHT22;62526;50.948;6.590;2022-08-19T14:54:31;32.40;36.50
74171;DHT22;62526;50.948;6.590;2022-08-19T14:56:58;32.40;36.50
74171;DHT22;62526;50.948;6.590;2022-08-19T14:59:25;32.80;35.30
74171;DHT22;62526;50.948;6.590;2022-08-19T15:01:52;33.00;35.30
74171;DHT22;62526;50.948;6.590;2022-08-19T15:04:19;32.90;35.40
74171;DHT22;62526;50.948;6.590;2022-08-19T15:06:46;32.30;36.20
74171;DHT22;62526;50.948;6.590;2022-08-19T15:09:13;31.40;38.80
74171;DHT22;62526;50.948;6.590;2022-08-19T15:11:39;30.60;41.00
74171;DHT22;62526;50.948;6.590;2022-08-19T15:14:07;30.50;41.10
74171;DHT22;62526;50.948;6.590;2022-08-19T15:16:34;30.80;40.50
74171;DHT22;62526;50.948;6.590;2022-08-19T15:19:00;30.60;41.20
74171;DHT22;62526;50.948;6.590;2022-08-19T15:21:28;30.60;41.60
74171;DHT22;62526;50.948;6.590;2022-08-19T15:23:55;31.00;40.40
74171;DHT22;62526;50.948;6.590;2022-08-19T15:26:20;30.90;40.60
74171;DHT22;62526;50.948;6.590;2022-08-19T15:28:48;30.90;40.70
74171;DHT22;62526;50.948;6.590;2022-08-19T15:31:16;30.70;40.70
74171;DHT22;62526;50.948;6.590;2022-08-19T15:33:41;30.60;41.20